sensor_id;sensor_type;location;lat;lon;timestamp;temperature;humidity
15705;DHT22;7952;48.396;12.806;2022-10-31T00:28:10;14.60;61.50
15705;DHT22;7952;48.396;12.806;2022-10-31T00:58:59;14.50;61.70
15705;DHT22;7952;48.396;12.806;2022-10-31T01:12:42;14.30;61.70
15705;DHT22;7952;48.396;12.806;2022-10-31T03:19:03;12.80;62.00
15705;DHT22;7952;48.396;12.806;2022-10-31T03:21:55;12.80;62.00
15705;DHT22;7952;48.396;12.806;2022-10-31T03:24:42;12.80;61.90
15705;DHT22;7952;48.396;12.806;2022-10-31T03:27:22;12.70;61.90
15705;DHT22;7952;48.396;12.806;2022-10-31T03:30:31;12.70;61.90
15705;DHT22;7952;48.396;12.806;2022-10-31T03:33:35;12.70;62.10
15705;DHT22;7952;48.396;12.806;2022-10-31T03:36:04;12.60;62.00
15705;DHT22;7952;48.396;12.806;2022-10-31T03:38:31;12.60;62.00
15705;DHT22;7952;48.396;12.806;2022-10-31T03:41:03;12.60;62.00
15705;DHT22;7952;48.396;12.806;2022-10-31T03:54:07;12.70;61.90
15705;DHT22;7952;48.396;12.806;2022-10-31T03:56:37;12.70;61.70
15705;DHT22;7952;48.396;12.806;2022-10-31T03:59:22;12.70;61.70
15705;DHT22;7952;48.396;12.806;2022-10-31T04:01:51;12.70;61.70
15705;DHT22;7952;48.396;12.806;2022-10-31T04:04:39;12.70;61.70
15705;DHT22;7952;48.396;12.806;2022-10-31T04:07:31;12.70;61.80
15705;DHT22;7952;48.396;12.806;2022-10-31T04:10:28;12.70;61.80
15705;DHT22;7952;48.396;12.806;2022-10-31T04:16:00;12.70;61.80
15705;DHT22;7952;48.396;12.806;2022-10-31T04:18:27;12.70;61.80
15705;DHT22;7952;48.396;12.806;2022-10-31T04:21:39;12.60;61.70
15705;DHT22;7952;48.396;12.806;2022-10-31T04:24:09;12.60;61.60
15705;DHT22;7952;48.396;12.806;2022-10-31T04:26:34;12.50;61.60
15705;DHT22;7952;48.396;12.806;2022-10-31T04:29:00;12.50;61.70
15705;DHT22;7952;48.396;12.806;2022-10-31T04:31:26;12.50;61.70
15705;DHT22;7952;48.396;12.806;2022-10-31T04:34:07;12.40;61.70
15705;DHT22;7952;48.396;12.806;2022-10-31T04:36:33;12.40;61.70
15705;DHT22;7952;48.396;12.806;2022-10-31T04:38:58;12.40;61.70
15705;DHT22;7952;48.396;12.806;2022-10-31T04:41:24;12.40;61.80
15705;DHT22;7952;48.396;12.806;2022-10-31T04:43:50;12.30;61.70
15705;DHT22;7952;48.396;12.806;2022-10-31T04:46:15;12.30;61.70
15705;DHT22;7952;48.396;12.806;2022-10-31T04:48:41;12.20;61.70
15705;DHT22;7952;48.396;12.806;2022-10-31T04:51:07;12.20;61.70
15705;DHT22;7952;48.396;12.806;2022-10-31T04:53:32;12.20;61.80
15705;DHT22;7952;48.396;12.806;2022-10-31T04:56:01;12.20;61.80
15705;DHT22;7952;48.396;12.806;2022-10-31T04:58:26;12.20;61.80
15705;DHT22;7952;48.396;12.806;2022-10-31T05:00:53;12.10;61.70
15705;DHT22;7952;48.396;12.806;2022-10-31T05:03:19;12.10;61.70
15705;DHT22;7952;48.396;12.806;2022-10-31T05:05:45;12.10;61.80
15705;DHT22;7952;48.396;12.806;2022-10-31T05:08:11;12.10;61.80
15705;DHT22;7952;48.396;12.806;2022-10-31T05:10:36;12.10;61.80
15705;DHT22;7952;48.396;12.806;2022-10-31T05:13:04;12.00;61.70
15705;DHT22;7952;48.396;12.806;2022-10-31T05:15:30;12.00;61.70
15705;DHT22;7952;48.396;12.806;2022-10-31T05:17:56;12.10;61.80
15705;DHT22;7952;48.396;12.806;2022-10-31T05:20:25;12.00;61.70
15705;DHT22;7952;48.396;12.806;2022-10-31T05:22:53;12.10;61.80
15705;DHT22;7952;48.396;12.806;2022-10-31T05:25:40;12.10;61.70
15705;DHT22;7952;48.396;12.806;2022-10-31T05:28:09;12.10;61.70
15705;DHT22;7952;48.396;12.806;2022-10-31T05:30:35;12.10;61.70
15705;DHT22;7952;48.396;12.806;2022-10-31T05:33:01;12.10;61.70
15705;DHT22;7952;48.396;12.806;2022-10-31T05:35:35;12.10;61.70
15705;DHT22;7952;48.396;12.806;2022-10-31T05:38:01;12.10;61.70
15705;DHT22;7952;48.396;12.806;2022-10-31T05:40:27;12.10;61.70
15705;DHT22;7952;48.396;12.806;2022-10-31T05:42:55;12.10;61.70
15705;DHT22;7952;48.396;12.806;2022-10-31T05:45:24;12.10;61.70
15705;DHT22;7952;48.396;12.806;2022-10-31T05:48:00;12.10;61.70
15705;DHT22;7952;48.396;12.806;2022-10-31T05:50:28;12.10;61.60
15705;DHT22;7952;48.396;12.806;2022-10-31T05:52:56;12.10;61.70
15705;DHT22;7952;48.396;12.806;2022-10-31T05:55:54;12.10;61.70
15705;DHT22;7952;48.396;12.806;2022-10-31T05:58:28;12.10;61.70
15705;DHT22;7952;48.396;12.806;2022-10-31T06:00:53;12.10;61.60
15705;DHT22;7952;48.396;12.806;2022-10-31T06:03:19;12.10;61.70
15705;DHT22;7952;48.396;12.806;2022-10-31T06:05:45;12.10;61.70
15705;DHT22;7952;48.396;12.806;2022-10-31T06:08:11;12.10;61.70
15705;DHT22;7952;48.396;12.806;2022-10-31T06:10:36;12.10;61.70
15705;DHT22;7952;48.396;12.806;2022-10-31T06:13:02;12.20;61.80
15705;DHT22;7952;48.396;12.806;2022-10-31T06:15:28;12.20;61.70
15705;DHT22;7952;48.396;12.806;2022-10-31T06:18:12;12.20;61.70
15705;DHT22;7952;48.396;12.806;2022-10-31T06:20:38;12.30;61.90
15705;DHT22;7952;48.396;12.806;2022-10-31T06:23:13;12.30;62.00
15705;DHT22;7952;48.396;12.806;2022-10-31T06:25:39;12.50;62.30
15705;DHT22;7952;48.396;12.806;2022-10-31T06:28:08;12.70;62.40
15705;DHT22;7952;48.396;12.806;2022-10-31T06:30:34;13.00;62.60
15705;DHT22;7952;48.396;12.806;2022-10-31T06:49:54;13.90;62.80
15705;DHT22;7952;48.396;12.806;2022-10-31T08:13:09;24.20;61.10
15705;DHT22;7952;48.396;12.806;2022-10-31T08:26:04;24.30;61.20
15705;DHT22;7952;48.396;12.806;2022-10-31T16:55:20;17.90;60.00
15705;DHT22;7952;48.396;12.806;2022-10-31T17:12:29;17.70;60.00
15705;DHT22;7952;48.396;12.806;2022-10-31T17:18:52;17.50;60.00
15705;DHT22;7952;48.396;12.806;2022-10-31T23:46:29;12.80;61.00
15705;DHT22;7952;48.396;12.806;2022-10-31T23:48:55;12.80;61.00
